Sipu Muin — CHCGA — position and weather

sailwx.info

Track history (hours):
 
Tides and Currents Weather Stations Pressure Air Temp Water Temp Dewpoint Dewpoint Depression Visibility Wind Speed Wind Dir Waves Ship Positions

Sipu Muin

Last reported at 2017-Jun-22 20:07 UTC. Time now 2017-Jun-23 08:44 UTC.
Position N 45°25' W 073°59'.

Length 37 m.

Type: High speed craft. MMSI: 316001988.

Date/timePositionNaut miles runAvg speedWind from/ knotsBaromVisibWave heightAir tempDewpointWater temp
2017-Jun-22 20:07N 45°25' W 073°59'217.6
2017-Jun-22 20:00N 45°27' W 074°00'1 2.0
2017-Jun-22 19:26N 45°28' W 073°59'1 3.2
2017-Jun-22 19:00N 45°29' W 073°58'1 1.7
2017-Jun-22 18:30N 45°30' W 073°57'3 5.0
2017-Jun-22 18:00N 45°31' W 073°54'9 0.4
2017-Jun-21 21:03N 45°24' W 074°00'0 0.9
2017-Jun-21 20:53N 45°24' W 074°00'3 0.9
2017-Jun-21 17:58N 45°26' W 074°00'1 0.9
2017-Jun-21 16:27N 45°25' W 073°59'3 0.1
2017-Jun-20 20:19N 45°27' W 074°02'2 2.7
2017-Jun-20 19:42N 45°26' W 074°00'1 4.3
2017-Jun-20 19:30N 45°26' W 073°59'1 1.5
2017-Jun-20 18:36N 45°25' W 073°58'0 0.7
2017-Jun-20 18:20N 45°24' W 073°58'310.8
2017-Jun-20 18:01N 45°25' W 073°53'  
2017-Jun-13 19:32N 45°25' W 073°43'3 7.5
2017-Jun-13 19:11N 45°25' W 073°40'3 1.6
2017-Jun-13 17:31N 45°25' W 073°43'0 6.5
2017-Jun-13 17:30N 45°25' W 073°43'0 0.9
2017-Jun-13 16:56N 45°25' W 073°44'3 3.3
2017-Jun-13 16:05N 45°25' W 073°40'3 1.2
2017-Jun-13 14:00N 45°24' W 073°43'  
Track history (hours):
 
Tides and Currents Weather Stations Pressure Air Temp Water Temp Dewpoint Dewpoint Depression Visibility Wind Speed Wind Dir Waves Ship Positions

Sipu Muin

Last reported at 2017-Jun-22 20:07 UTC. Time now 2017-Jun-23 08:44 UTC.
Position N 45°25' W 073°59'.

Length 37 m.

Type: High speed craft. MMSI: 316001988.

Date/timePositionNaut miles runAvg speedWind from/ knotsBaromVisibWave heightAir tempDewpointWater temp
2017-Jun-22 20:07N 45°25' W 073°59'217.6
2017-Jun-22 20:00N 45°27' W 074°00'1 2.0
2017-Jun-22 19:26N 45°28' W 073°59'1 3.2
2017-Jun-22 19:00N 45°29' W 073°58'1 1.7
2017-Jun-22 18:30N 45°30' W 073°57'3 5.0
2017-Jun-22 18:00N 45°31' W 073°54'9 0.4
2017-Jun-21 21:03N 45°24' W 074°00'0 0.9
2017-Jun-21 20:53N 45°24' W 074°00'3 0.9
2017-Jun-21 17:58N 45°26' W 074°00'1 0.9
2017-Jun-21 16:27N 45°25' W 073°59'3 0.1
2017-Jun-20 20:19N 45°27' W 074°02'2 2.7
2017-Jun-20 19:42N 45°26' W 074°00'1 4.3
2017-Jun-20 19:30N 45°26' W 073°59'1 1.5
2017-Jun-20 18:36N 45°25' W 073°58'0 0.7
2017-Jun-20 18:20N 45°24' W 073°58'310.8
2017-Jun-20 18:01N 45°25' W 073°53'  
2017-Jun-13 19:32N 45°25' W 073°43'3 7.5
2017-Jun-13 19:11N 45°25' W 073°40'3 1.6
2017-Jun-13 17:31N 45°25' W 073°43'0 6.5
2017-Jun-13 17:30N 45°25' W 073°43'0 0.9
2017-Jun-13 16:56N 45°25' W 073°44'3 3.3
2017-Jun-13 16:05N 45°25' W 073°40'3 1.2
2017-Jun-13 14:00N 45°24' W 073°43'  

Dump ship's entire track history